OEJN

King Abdulaziz International Airport

Jeddah, Saudi Arabia
TAF OEJN 192300Z 2000/2106 04006KT 7000 FEW040 SCT100 BECMG 2006/2008 29014KT 9999 SCT040
Issued Valid From Valid To
Oct-19 @ 23:00 UTC
(3 hours ago)
Oct-20 @ 00:00 UTC
(2 hours ago)
Oct-21 @ 06:00 UTC
(-1 days ago)
Oct-20 @ 00:00 to Oct-20 @ 06:00
TAF OEJN 192300Z 2000/2106 04006KT 7000 FEW040 SCT100
Wind Visibility Clouds
40° at 6 knots 7,001 meters
  • Few at 4,000' AGL
  • Scattered at 10,000' AGL
Becoming Oct-20 @ 06:00 to Oct-21 @ 06:00
BECMG 2006/2008 29014KT 9999 SCT040
Wind Visibility Clouds
290° at 14 knots 10,000+ meters
  • Scattered at 4,000' AGL
TAF OEJN 192300Z 2000/2106 04006KT 7000 FEW040 SCT100 BECMG 2006/2008 29014KT 9999 SCT040
Issued Oct-19 @ 23:00 UTC
(3 hours ago)
Valid From Oct-20 @ 00:00 UTC
(2 hours ago)
Valid To Oct-21 @ 06:00 UTC
(-1 days ago)
Oct-20 @ 00:00 - Oct-20 @ 06:00
Wind Visibility
40° at 6 knots 7,001 meters
Clouds
  • Few at 4,000' AGL
  • Scattered at 10,000' AGL
Becoming Oct-20 @ 06:00 - Oct-21 @ 06:00
Wind Visibility
290° at 14 knots 10,000+ meters
Clouds
  • Scattered at 4,000' AGL